Time;durP1;ratioP1;P1;durP2;ratioP2;P2;SDS_P1;SDS_P2;PMS_P1;PMS_P2;Temp;Humidity;BMP_temperature;BMP_pressure;BME280_temperature;BME280_humidity;BME280_pressure;Samples;Min_cycle;Max_cycle;Signal;HPM_P1;HPM_P2
2023/01/03 00:01:11;;;;;;;5.77;3.00;;;;;;;-142.75;100.00;78620.00;4985091;28;20029;-65
2023/01/03 00:03:37;;;;;;;10.10;3.42;;;;;;;-142.75;100.00;78592.44;4989163;28;20480;-64
2023/01/03 00:06:03;;;;;;;6.30;3.58;;;;;;;-142.75;100.00;78596.38;4998031;28;20334;-65
2023/01/03 00:08:28;;;;;;;7.68;3.20;;;;;;;-142.75;100.00;78600.31;4999359;28;20373;-64
2023/01/03 00:10:54;;;;;;;7.13;3.47;;;;;;;-142.75;100.00;78598.34;4997410;28;20450;-64
2023/01/03 00:13:19;;;;;;;11.75;3.20;;;;;;;-142.75;100.00;78610.16;4992488;28;20315;-64
2023/01/03 00:15:45;;;;;;;6.78;3.10;;;;;;;-142.75;100.00;78600.31;4992172;28;20337;-65
2023/01/03 00:18:10;;;;;;;7.95;3.13;;;;;;;-142.75;100.00;78604.25;4990897;28;20335;-65
2023/01/03 00:20:36;;;;;;;6.30;2.80;;;;;;;-142.75;100.00;78602.28;4987750;28;20467;-65
2023/01/03 00:23:01;;;;;;;6.25;2.75;;;;;;;-142.75;100.00;78612.13;4992592;28;20308;-65
2023/01/03 00:25:28;;;;;;;6.72;2.83;;;;;;;-142.75;100.00;78614.09;4999482;28;20308;-64
2023/01/03 00:27:53;;;;;;;6.07;3.07;;;;;;;-142.75;100.00;78604.25;4979977;28;20028;-64
2023/01/03 00:30:19;;;;;;;9.52;3.80;;;;;;;-142.75;100.00;78602.28;5007449;28;20326;-64
2023/01/03 00:32:45;;;;;;;7.25;3.53;;;;;;;-142.75;100.00;78600.31;4978492;28;20190;-65
2023/01/03 00:35:10;;;;;;;8.45;4.00;;;;;;;-142.75;100.00;78594.41;4980012;28;20346;-64
2023/01/03 00:37:36;;;;;;;6.65;3.78;;;;;;;-142.75;100.00;78604.25;4996782;28;20499;-64
2023/01/03 00:40:02;;;;;;;8.52;4.22;;;;;;;-142.75;100.00;78610.16;4980314;28;20413;-65
2023/01/03 00:42:27;;;;;;;;;;;;;;;-142.75;100.00;78614.09;4997880;28;20020;-65
2023/01/03 00:44:53;;;;;;;10.90;4.40;;;;;;;-142.75;100.00;78631.81;4991334;28;20204;-65
2023/01/03 00:47:18;;;;;;;6.47;3.88;;;;;;;-142.75;100.00;78637.72;4974911;28;20338;-65
2023/01/03 00:49:44;;;;;;;9.63;4.68;;;;;;;-142.75;100.00;78621.97;4997681;28;20330;-65
2023/01/03 00:52:09;;;;;;;9.63;5.75;;;;;;;-142.75;100.00;78620.00;4993098;28;20454;-64
2023/01/03 00:54:35;;;;;;;11.18;4.78;;;;;;;-142.75;100.00;78637.72;4984134;28;20386;-65
2023/01/03 00:57:00;;;;;;;11.80;6.63;;;;;;;-142.75;100.00;78616.06;4986999;28;20139;-65
2023/01/03 00:59:26;;;;;;;13.38;6.82;;;;;;;-142.75;100.00;78635.75;4988622;28;20332;-65
2023/01/03 01:01:54;;;;;;;15.02;7.50;;;;;;;-142.75;100.00;78635.75;4993704;28;20039;-65
2023/01/03 01:04:26;;;;;;;17.77;7.80;;;;;;;-142.75;100.00;78635.75;4994418;28;20127;-65
2023/01/03 01:06:54;;;;;;;16.73;8.83;;;;;;;-142.75;100.00;78629.84;4991380;28;20032;-64
2023/01/03 01:09:25;;;;;;;16.20;9.17;;;;;;;-142.75;100.00;78621.97;5004135;28;20025;-65
2023/01/03 01:11:51;;;;;;;17.67;9.73;;;;;;;-142.75;100.00;78612.13;4982335;28;20021;-65
2023/01/03 01:14:21;;;;;;;23.25;10.38;;;;;;;-142.75;100.00;78598.34;4999642;28;20331;-65
2023/01/03 01:16:46;;;;;;;21.30;10.10;;;;;;;-142.75;100.00;78614.09;5003462;28;20032;-65
2023/01/03 01:19:12;;;;;;;18.67;9.57;;;;;;;-142.75;100.00;78616.06;4976925;28;20331;-65
2023/01/03 01:21:38;;;;;;;17.83;10.18;;;;;;;-142.75;100.00;78618.03;4987206;28;20029;-65
2023/01/03 01:24:04;;;;;;;21.75;10.85;;;;;;;-142.75;100.00;78604.25;4968387;28;20410;-65
2023/01/03 01:26:29;;;;;;;21.52;10.85;;;;;;;-142.75;100.00;78608.19;4996464;28;20446;-64
2023/01/03 01:28:55;;;;;;;23.90;11.68;;;;;;;-142.75;100.00;78596.38;4967419;28;20401;-65
2023/01/03 01:31:23;;;;;;;25.42;11.70;;;;;;;-142.75;100.00;78592.44;4974804;28;20143;-64
2023/01/03 01:33:49;;;;;;;25.57;11.00;;;;;;;-142.75;100.00;78598.34;4995464;28;20025;-64
2023/01/03 01:36:24;;;;;;;18.80;10.60;;;;;;;-142.75;100.00;78629.84;4983281;28;20185;-64
2023/01/03 01:38:58;;;;;;;29.37;12.10;;;;;;;-142.75;100.00;78621.97;5000879;28;20052;-64
2023/01/03 01:44:47;;;;;;;19.97;10.83;;;;;;;-142.75;100.00;78629.84;4989590;28;20090;-65
2023/01/03 01:47:47;;;;;;;17.23;9.43;;;;;;;-142.75;100.00;78645.59;4969097;28;20040;-65
2023/01/03 01:50:27;;;;;;;23.73;11.97;;;;;;;-142.75;100.00;78637.72;4994628;28;20597;-65
2023/01/03 01:52:58;;;;;;;20.57;11.23;;;;;;;-142.75;100.00;78641.66;4988078;28;20135;-64
2023/01/03 01:55:32;;;;;;;20.47;11.23;;;;;;;-142.75;100.00;78671.22;4991023;28;20525;-65
2023/01/03 01:58:00;;;;;;;22.17;11.13;;;;;;;-142.75;100.00;78665.28;4996868;28;20032;-64
2023/01/03 02:00:26;;;;;;;23.77;12.20;;;;;;;-142.75;100.00;78665.28;4996982;28;20085;-65
2023/01/03 02:02:52;;;;;;;21.75;10.57;;;;;;;-142.75;100.00;78661.34;5000912;28;20338;-67
2023/01/03 02:05:19;;;;;;;12.53;6.37;;;;;;;-142.75;100.00;78712.56;4991847;28;20131;-67
2023/01/03 02:07:50;;;;;;;10.53;6.20;;;;;;;-142.75;100.00;78718.47;4992535;28;20052;-66
2023/01/03 02:10:20;;;;;;;14.73;5.53;;;;;;;-142.75;100.00;78708.63;4976177;28;20133;-66
2023/01/03 02:13:07;;;;;;;13.10;7.17;;;;;;;-142.75;100.00;78716.50;4977280;28;20066;-66
2023/01/03 02:15:32;;;;;;;;;;;;;;;-142.75;100.00;78704.69;4979985;28;20901;-66
2023/01/03 02:18:11;;;;;;;9.53;5.80;;;;;;;-142.75;100.00;78712.56;4982600;28;19912;-66
2023/01/03 02:21:34;;;;;;;29.83;6.63;;;;;;;-142.75;100.00;78712.56;5002403;28;20016;-67
2023/01/03 02:24:24;;;;;;;20.27;6.27;;;;;;;-142.75;100.00;78763.78;4920962;28;20030;-66
2023/01/03 02:27:38;;;;;;;41.30;6.77;;;;;;;-142.75;100.00;78795.28;4920561;28;20038;-66
2023/01/03 02:30:25;;;;;;;59.60;6.03;;;;;;;-142.75;100.00;78797.25;4920712;28;20060;-66
2023/01/03 02:33:03;;;;;;;49.10;5.07;;;;;;;-142.75;100.00;78818.91;4988271;28;20103;-66
2023/01/03 02:35:36;;;;;;;54.60;5.67;;;;;;;-142.75;100.00;78858.31;4987607;28;20037;-66
2023/01/03 02:38:22;;;;;;;51.97;4.87;;;;;;;-142.75;100.00;78878.00;4991418;28;20568;-66
2023/01/03 02:41:08;;;;;;;45.87;4.00;;;;;;;-142.75;100.00;78923.31;4982556;28;20087;-66
2023/01/03 02:43:48;;;;;;;24.50;4.05;;;;;;;-142.75;100.00;78915.44;4991898;28;20275;-66
2023/01/03 02:46:22;;;;;;;24.53;3.63;;;;;;;-142.75;100.00;78927.25;4982156;28;20024;-66
2023/01/03 02:49:17;;;;;;;23.13;4.30;;;;;;;-142.75;100.00;78935.13;4970521;28;20028;-66
2023/01/03 02:51:52;;;;;;;15.70;4.10;;;;;;;-142.75;100.00;78944.97;4985957;28;20114;-66
2023/01/03 02:54:27;;;;;;;6.47;4.03;;;;;;;-142.75;100.00;78954.81;4987111;28;20060;-66
2023/01/03 02:57:17;;;;;;;17.90;5.10;;;;;;;-142.75;100.00;78972.56;4989393;28;20554;-67
2023/01/03 02:59:46;;;;;;;29.57;4.80;;;;;;;-142.75;100.00;78972.56;4973239;28;20113;-68
2023/01/03 03:02:14;;;;;;;16.83;3.90;;;;;;;-142.75;100.00;78956.78;5000314;28;20098;-68
2023/01/03 03:04:41;;;;;;;20.70;4.17;;;;;;;-142.75;100.00;78956.78;4990264;28;20048;-68
2023/01/03 03:07:14;;;;;;;21.93;5.00;;;;;;;-142.75;100.00;78950.88;4998907;28;20047;-68
2023/01/03 03:15:13;;;;;;;;;;;;;;;-142.75;100.00;78878.00;4986595;28;20119;-68
2023/01/03 03:17:41;;;;;;;12.77;7.30;;;;;;;-142.75;100.00;78856.34;4994719;28;19919;-68
2023/01/03 03:26:02;;;;;;;20.93;10.10;;;;;;;-142.75;100.00;78826.81;4991076;28;20442;-68
2023/01/03 03:28:35;;;;;;;18.30;10.17;;;;;;;-142.75;100.00;78816.94;4973163;28;20028;-68
2023/01/03 03:31:09;;;;;;;18.53;9.90;;;;;;;-142.75;100.00;78814.97;4987051;28;20055;-68
2023/01/03 03:33:41;;;;;;;23.27;10.53;;;;;;;-142.75;100.00;78814.97;4981546;28;20032;-68
2023/01/03 03:36:15;;;;;;;22.53;12.00;;;;;;;-142.75;100.00;78805.13;4989443;28;20020;-68
2023/01/03 03:38:43;;;;;;;22.63;11.10;;;;;;;-142.75;100.00;78818.91;4982955;28;20909;-68
2023/01/03 03:47:33;;;;;;;;;;;;;;;-142.75;100.00;78832.72;5001678;28;20194;-68
2023/01/03 03:50:09;;;;;;;17.37;10.00;;;;;;;-142.75;100.00;78826.81;4994366;28;19912;-68
2023/01/03 03:52:36;;;;;;;18.20;9.70;;;;;;;-142.75;100.00;78836.66;4993163;28;20025;-68
2023/01/03 03:55:08;;;;;;;22.30;12.43;;;;;;;-142.75;100.00;78813.00;4987488;28;20044;-68
2023/01/03 03:57:40;;;;;;;20.40;11.67;;;;;;;-142.75;100.00;78826.81;4977475;28;20114;-68
2023/01/03 04:00:12;;;;;;;25.03;11.87;;;;;;;-142.75;100.00;78830.75;4985006;28;20049;-68
2023/01/03 04:02:40;;;;;;;25.93;12.67;;;;;;;-142.75;100.00;78828.78;4999960;28;20082;-68
2023/01/03 04:05:10;;;;;;;27.10;12.77;;;;;;;-142.75;100.00;78830.75;4993159;28;20144;-67
2023/01/03 04:07:36;;;;;;;25.03;13.27;;;;;;;-142.75;100.00;78828.78;4987887;28;20036;-67
2023/01/03 04:10:03;;;;;;;21.33;12.98;;;;;;;-142.75;100.00;78822.88;4990326;28;20124;-67
2023/01/03 04:12:28;;;;;;;28.20;13.57;;;;;;;-142.75;100.00;78824.84;4967340;28;20032;-67
2023/01/03 04:14:54;;;;;;;19.42;11.68;;;;;;;-142.75;100.00;78826.81;4981158;28;20060;-67
2023/01/03 04:17:19;;;;;;;28.48;13.30;;;;;;;-142.75;100.00;78834.69;4996706;28;20411;-68
2023/01/03 04:19:45;;;;;;;26.98;12.35;;;;;;;-142.75;100.00;78832.72;4985016;28;20331;-66
2023/01/03 04:22:10;;;;;;;24.40;12.35;;;;;;;-142.75;100.00;78822.88;4989761;28;20032;-67
2023/01/03 04:24:36;;;;;;;25.35;11.90;;;;;;;-142.75;100.00;78818.91;4987843;28;20371;-67
2023/01/03 04:27:01;;;;;;;32.28;12.80;;;;;;;-142.75;100.00;78826.81;4962915;28;20114;-67
2023/01/03 04:29:27;;;;;;;19.35;10.93;;;;;;;-142.75;100.00;78826.81;4988097;28;20063;-68
2023/01/03 04:31:52;;;;;;;22.83;12.93;;;;;;;-142.75;100.00;78834.69;4984593;28;20389;-68
2023/01/03 04:34:18;;;;;;;25.70;12.65;;;;;;;-142.75;100.00;78838.63;4992628;28;20350;-67
2023/01/03 04:36:44;;;;;;;21.80;12.88;;;;;;;-142.75;100.00;78826.81;4975856;28;20332;-68
2023/01/03 04:39:09;;;;;;;23.20;12.05;;;;;;;-142.75;100.00;78822.88;4975599;28;20039;-68
2023/01/03 04:41:35;;;;;;;24.08;11.98;;;;;;;-142.75;100.00;78822.88;5004651;28;20683;-68
2023/01/03 04:44:00;;;;;;;21.45;12.00;;;;;;;-142.75;100.00;78824.84;4997387;28;20187;-67
2023/01/03 04:46:27;;;;;;;22.13;11.75;;;;;;;-142.75;100.00;78832.72;4999505;28;20354;-67
2023/01/03 04:48:53;;;;;;;25.20;12.57;;;;;;;-142.75;100.00;78811.03;4999385;28;20039;-68
2023/01/03 04:51:18;;;;;;;26.13;12.25;;;;;;;-142.75;100.00;78826.81;4983759;28;20131;-68
2023/01/03 04:53:43;;;;;;;22.05;11.98;;;;;;;-142.75;100.00;78836.66;4995821;28;20346;-67
2023/01/03 04:56:09;;;;;;;18.35;11.52;;;;;;;-142.75;100.00;78854.38;5004290;28;20337;-67
2023/01/03 04:58:35;;;;;;;19.35;10.88;;;;;;;-142.75;100.00;78858.31;4985584;28;20335;-68
2023/01/03 05:01:02;;;;;;;22.40;10.88;;;;;;;-142.75;100.00;78842.56;4989095;28;20381;-68
2023/01/03 05:03:29;;;;;;;19.03;11.37;;;;;;;-142.75;100.00;78858.31;4984419;28;20033;-68
2023/01/03 05:06:01;;;;;;;;;;;;;;;-142.75;100.00;78852.41;4989769;28;20065;-68
2023/01/03 05:08:26;;;;;;;19.13;10.33;;;;;;;-142.75;100.00;78885.88;4980583;28;19974;-68
2023/01/03 05:10:52;;;;;;;17.65;9.88;;;;;;;-142.75;100.00;78870.13;4997006;28;20381;-67
2023/01/03 05:13:18;;;;;;;19.27;9.75;;;;;;;-142.75;100.00;78864.22;4984365;28;20345;-68
2023/01/03 05:15:44;;;;;;;21.88;10.13;;;;;;;-142.75;100.00;78866.19;4992141;28;20392;-68
2023/01/03 05:18:09;;;;;;;21.20;9.95;;;;;;;-142.75;100.00;78854.38;4992912;28;20327;-67
2023/01/03 05:26:08;;;;;;;20.90;11.07;;;;;;;-142.75;100.00;78887.84;4991433;28;20203;-68
2023/01/03 05:28:35;;;;;;;23.93;10.63;;;;;;;-142.75;100.00;78868.16;4987364;28;20029;-68
2023/01/03 05:31:00;;;;;;;23.33;11.53;;;;;;;-142.75;100.00;78881.94;4995020;28;20047;-67
2023/01/03 05:33:26;;;;;;;23.65;11.07;;;;;;;-142.75;100.00;78862.25;5005488;28;20346;-68
2023/01/03 05:35:52;;;;;;;18.70;10.57;;;;;;;-142.75;100.00;78860.28;4993515;28;20353;-67
2023/01/03 05:38:18;;;;;;;19.98;11.02;;;;;;;-142.75;100.00;78856.34;4996186;28;20033;-67
2023/01/03 05:40:43;;;;;;;20.30;11.32;;;;;;;-142.75;100.00;78844.53;4990257;28;20064;-67
2023/01/03 05:43:09;;;;;;;21.42;10.55;;;;;;;-142.75;100.00;78846.50;4977304;28;20029;-68
2023/01/03 05:45:36;;;;;;;15.85;10.15;;;;;;;-142.75;100.00;78846.50;4969738;28;20339;-68
2023/01/03 05:48:01;;;;;;;16.17;10.87;;;;;;;-142.75;100.00;78842.56;4974659;28;20057;-68
2023/01/03 05:50:27;;;;;;;23.48;12.20;;;;;;;-142.75;100.00;78858.31;4992783;28;20194;-67
2023/01/03 05:52:52;;;;;;;20.45;11.25;;;;;;;-142.75;100.00;78852.41;4969459;28;20377;-68
2023/01/03 05:55:18;;;;;;;19.95;10.85;;;;;;;-142.75;100.00;78848.47;4996038;28;20299;-68
2023/01/03 05:57:45;;;;;;;26.33;11.13;;;;;;;-142.75;100.00;78834.69;5001016;28;20350;-68
2023/01/03 06:00:14;;;;;;;20.70;11.27;;;;;;;-142.75;100.00;78830.75;4990932;28;20105;-68
2023/01/03 06:02:40;;;;;;;21.77;12.57;;;;;;;-142.75;100.00;78838.63;4984161;28;20541;-67
2023/01/03 06:05:06;;;;;;;24.00;12.70;;;;;;;-142.75;100.00;78834.69;4966724;28;20028;-68
2023/01/03 06:07:32;;;;;;;20.70;11.32;;;;;;;-142.75;100.00;78826.81;4980618;28;20028;-67
2023/01/03 06:09:59;;;;;;;24.07;11.00;;;;;;;-142.75;100.00;78826.81;4996328;28;20025;-67
2023/01/03 06:12:28;;;;;;;25.10;13.07;;;;;;;-142.75;100.00;78822.88;4983598;28;20130;-68
2023/01/03 06:14:54;;;;;;;22.83;11.03;;;;;;;-142.75;100.00;78820.88;4984015;28;20021;-68
2023/01/03 06:20:04;;;;;;;19.60;10.43;;;;;;;-142.75;100.00;78844.53;4996571;28;20208;-67
2023/01/03 06:22:29;;;;;;;18.05;10.40;;;;;;;-142.75;100.00;78842.56;4999641;28;20374;-68
2023/01/03 06:24:55;;;;;;;22.13;10.88;;;;;;;-142.75;100.00;78838.63;4992418;28;20304;-68
2023/01/03 06:27:20;;;;;;;16.13;10.00;;;;;;;-142.75;100.00;78846.50;4991203;28;20320;-68
2023/01/03 06:29:46;;;;;;;18.40;10.95;;;;;;;-142.75;100.00;78834.69;4991734;28;20562;-67
2023/01/03 06:32:11;;;;;;;17.65;10.75;;;;;;;-142.75;100.00;78840.59;5002191;28;20345;-68
2023/01/03 06:34:37;;;;;;;30.90;12.45;;;;;;;-142.75;100.00;78822.88;4985402;28;20332;-68
2023/01/03 06:37:03;;;;;;;21.85;12.13;;;;;;;-142.75;100.00;78809.06;5002206;28;20345;-68
2023/01/03 06:39:28;;;;;;;18.08;10.25;;;;;;;-142.75;100.00;78811.03;5002062;28;20350;-68
2023/01/03 06:41:54;;;;;;;24.10;10.40;;;;;;;-142.75;100.00;78809.06;4987579;28;20338;-67
2023/01/03 06:44:19;;;;;;;17.05;10.07;;;;;;;-142.75;100.00;78805.13;4982131;28;20052;-67
2023/01/03 06:54:59;;;;;;;23.10;10.50;;;;;;;-142.75;100.00;78753.94;4987874;28;20603;-67
2023/01/03 06:57:25;;;;;;;21.00;10.90;;;;;;;-142.75;100.00;78734.22;4969556;28;20041;-68
2023/01/03 06:59:51;;;;;;;18.63;9.77;;;;;;;-142.75;100.00;78720.44;4982396;28;20478;-67
2023/01/03 07:02:16;;;;;;;19.25;9.48;;;;;;;-142.75;100.00;78716.50;4964414;28;20485;-67
2023/01/03 07:04:41;;;;;;;21.08;11.18;;;;;;;-142.75;100.00;78718.47;4997409;28;20330;-68
2023/01/03 07:07:07;;;;;;;21.13;10.98;;;;;;;-142.75;100.00;78716.50;4996099;28;20316;-68
2023/01/03 07:09:32;;;;;;;19.55;9.93;;;;;;;-142.75;100.00;78704.69;5000246;28;20319;-68
2023/01/03 07:13:57;;;;;;;18.40;9.25;;;;;;;-142.75;100.00;78706.66;4987317;28;20033;-68
2023/01/03 07:14:43;;;;;;;17.50;9.67;;;;;;;-142.75;100.00;78694.84;4994287;28;20360;-68
2023/01/03 07:17:09;;;;;;;25.50;12.95;;;;;;;-142.75;100.00;78692.88;4975634;28;20866;-68
2023/01/03 07:19:34;;;;;;;18.73;9.07;;;;;;;-142.75;100.00;78696.81;4989451;28;20388;-68
2023/01/03 07:22:00;;;;;;;19.08;9.55;;;;;;;-142.75;100.00;78708.63;5001813;28;20478;-68
2023/01/03 07:24:26;;;;;;;17.48;9.48;;;;;;;-142.75;100.00;78700.75;4994625;28;20332;-68
2023/01/03 07:26:51;;;;;;;18.77;8.90;;;;;;;-142.75;100.00;78704.69;4994806;28;20288;-68
2023/01/03 07:29:17;;;;;;;22.73;9.85;;;;;;;-142.75;100.00;78679.09;4990719;28;20330;-68
2023/01/03 07:31:42;;;;;;;20.95;9.73;;;;;;;-142.75;100.00;78681.06;4982311;28;20308;-68
2023/01/03 07:34:08;;;;;;;25.02;9.25;;;;;;;-142.75;100.00;78692.88;4990619;28;20303;-67
2023/01/03 07:36:34;;;;;;;19.98;9.80;;;;;;;-142.75;100.00;78690.91;4993275;28;20036;-68
2023/01/03 07:39:00;;;;;;;19.85;9.93;;;;;;;-142.75;100.00;78686.97;4983628;28;20202;-68
2023/01/03 07:43:35;;;;;;;19.48;10.27;;;;;;;-142.75;100.00;78685.00;5001764;28;20330;-67
2023/01/03 07:44:10;;;;;;;18.00;9.80;;;;;;;-142.75;100.00;78677.13;4988007;28;20433;-68
2023/01/03 07:46:36;;;;;;;20.75;10.30;;;;;;;-142.75;100.00;78669.25;4975913;28;20992;-68
2023/01/03 07:49:01;;;;;;;19.52;10.02;;;;;;;-142.75;100.00;78657.41;4991969;28;20033;-67
2023/01/03 07:51:28;;;;;;;21.83;10.68;;;;;;;-142.75;100.00;78663.31;4996210;28;20088;-67
2023/01/03 07:53:53;;;;;;;21.38;9.73;;;;;;;-142.75;100.00;78657.41;4963866;28;20123;-67
2023/01/03 07:56:21;;;;;;;17.88;9.65;;;;;;;-142.75;100.00;78637.72;4990916;28;20346;-67
2023/01/03 07:58:47;;;;;;;21.50;9.60;;;;;;;-142.75;100.00;78643.63;4987068;28;20091;-67
2023/01/03 08:03:49;;;;;;;20.33;9.77;;;;;;;-142.75;100.00;78641.66;5009697;28;20048;-66
2023/01/03 08:06:17;;;;;;;18.08;8.82;;;;;;;-142.75;100.00;78647.56;5007010;28;20266;-65
2023/01/03 08:08:44;;;;;;;26.43;11.07;;;;;;;-142.75;100.00;78637.72;5011385;28;20036;-67
2023/01/03 08:13:58;;;;;;;19.00;10.43;;;;;;;-142.75;100.00;78621.97;5002104;28;20046;-66
2023/01/03 08:16:24;;;;;;;;;;;;;;;-142.75;100.00;78612.13;4998946;28;20117;-66
2023/01/03 08:18:50;;;;;;;24.03;10.47;;;;;;;-142.75;100.00;78625.91;4986298;28;20231;-66
2023/01/03 08:21:15;;;;;;;23.52;10.25;;;;;;;-142.75;100.00;78627.88;4985757;28;20433;-66
2023/01/03 08:23:42;;;;;;;19.38;10.38;;;;;;;-142.75;100.00;78606.22;4990364;28;20328;-66
2023/01/03 08:26:10;;;;;;;24.57;11.03;;;;;;;-142.75;100.00;78612.13;4998599;28;20055;-65
2023/01/03 08:28:36;;;;;;;24.97;10.80;;;;;;;-142.75;100.00;78618.03;5005530;28;20082;-66
2023/01/03 08:31:09;;;;;;;25.98;11.10;;;;;;;-142.75;100.00;78612.13;4990369;28;20025;-66
2023/01/03 08:33:45;;;;;;;29.63;11.37;;;;;;;-142.75;100.00;78616.06;4996941;28;20028;-66
2023/01/03 08:36:12;;;;;;;24.13;11.05;;;;;;;-142.75;100.00;78598.34;5006969;28;20575;-66
2023/01/03 08:38:47;;;;;;;21.13;11.63;;;;;;;-142.75;100.00;78586.53;5006853;28;20043;-65
2023/01/03 08:41:18;;;;;;;24.23;11.77;;;;;;;-142.75;100.00;78574.69;5000520;28;20138;-67
2023/01/03 08:43:45;;;;;;;28.30;12.33;;;;;;;-142.75;100.00;78590.47;4986620;28;20397;-65
2023/01/03 08:46:13;;;;;;;24.20;11.30;;;;;;;-142.75;100.00;78588.50;4993776;28;20021;-66
2023/01/03 08:48:39;;;;;;;26.47;11.93;;;;;;;-142.75;100.00;78578.63;4995225;28;20025;-66
2023/01/03 08:51:05;;;;;;;30.45;12.90;;;;;;;-142.75;100.00;78576.66;4999038;28;20187;-67
2023/01/03 08:53:30;;;;;;;30.05;12.90;;;;;;;-142.75;100.00;78574.69;4993502;28;20529;-65
2023/01/03 08:55:56;;;;;;;22.67;12.23;;;;;;;-142.75;100.00;78568.78;4997660;28;20577;-66
2023/01/03 08:58:21;;;;;;;28.55;14.23;;;;;;;-142.75;100.00;78562.88;4971251;28;20489;-66
2023/01/03 09:00:47;;;;;;;29.60;14.80;;;;;;;-142.75;100.00;78558.94;5000578;28;20342;-66
2023/01/03 09:03:12;;;;;;;28.02;14.32;;;;;;;-142.75;100.00;78547.13;5002630;28;20327;-66
2023/01/03 09:05:38;;;;;;;32.63;15.40;;;;;;;-142.75;100.00;78553.03;5003727;28;20310;-66
2023/01/03 09:08:04;;;;;;;36.85;16.13;;;;;;;-142.75;100.00;78547.13;4992038;28;20401;-66
2023/01/03 09:10:29;;;;;;;36.40;15.95;;;;;;;-142.75;100.00;78543.19;4989641;28;20307;-66
2023/01/03 09:12:55;;;;;;;36.20;15.25;;;;;;;-142.75;100.00;78541.22;5004469;28;20036;-66
2023/01/03 09:15:21;;;;;;;33.30;14.48;;;;;;;-142.75;100.00;78527.44;4991093;28;20048;-65
2023/01/03 09:17:48;;;;;;;28.30;15.77;;;;;;;-142.75;100.00;78529.41;4986291;28;20124;-65
2023/01/03 09:20:16;;;;;;;30.10;16.37;;;;;;;-142.75;100.00;78515.63;4993450;28;20053;-67
2023/01/03 09:22:42;;;;;;;38.70;17.10;;;;;;;-142.75;100.00;78539.25;4996030;28;20094;-64
2023/01/03 09:25:08;;;;;;;34.75;15.27;;;;;;;-142.75;100.00;78523.50;4995340;28;20253;-67
2023/01/03 09:27:33;;;;;;;35.10;17.03;;;;;;;-142.75;100.00;78537.28;4991697;28;20558;-66
2023/01/03 09:29:59;;;;;;;41.15;17.08;;;;;;;-142.75;100.00;78521.53;5011614;28;20028;-66
2023/01/03 09:32:24;;;;;;;36.65;17.92;;;;;;;-142.75;100.00;78505.78;5057234;28;20111;-67
2023/01/03 09:34:49;;;;;;;37.67;17.25;;;;;;;-142.75;100.00;78490.00;5055224;28;20016;-67
2023/01/03 09:37:15;;;;;;;36.00;17.25;;;;;;;-142.75;100.00;78495.94;5055384;28;20055;-67
2023/01/03 09:39:40;;;;;;;35.65;17.08;;;;;;;-142.75;100.00;78495.94;5055362;28;20024;-67
2023/01/03 09:44:55;;;;;;;45.37;18.10;;;;;;;-142.75;100.00;78486.06;5048530;28;20071;-67
2023/01/03 09:47:24;;;;;;;40.45;17.55;;;;;;;-142.75;100.00;78488.03;5048773;28;20112;-66
2023/01/03 09:49:52;;;;;;;43.27;17.57;;;;;;;-142.75;100.00;78480.16;5050221;28;20027;-67
2023/01/03 10:04:26;;;;;;;34.13;17.13;;;;;;;-142.75;100.00;78454.56;5061944;28;20646;-67
2023/01/03 10:07:00;;;;;;;39.97;17.53;;;;;;;-142.75;100.00;78442.75;5055395;28;20482;-67
2023/01/03 10:09:40;;;;;;;35.83;16.67;;;;;;;-142.75;100.00;78448.66;5049384;28;20021;-66
2023/01/03 10:12:32;;;;;;;32.93;16.87;;;;;;;-142.75;100.00;78440.78;5052688;28;20557;-66
2023/01/03 10:15:11;;;;;;;39.57;16.17;;;;;;;-142.75;100.00;78430.94;5050652;28;20017;-66
2023/01/03 10:17:54;;;;;;;43.70;16.77;;;;;;;-142.75;100.00;78425.03;5043929;28;20804;-66
2023/01/03 10:20:28;;;;;;;33.97;15.60;;;;;;;-142.75;100.00;78432.91;5052739;28;20337;-68
2023/01/03 10:22:55;;;;;;;32.17;14.97;;;;;;;-142.75;100.00;78415.19;5045897;28;20509;-69
2023/01/03 10:25:22;;;;;;;36.50;16.60;;;;;;;-142.75;100.00;78399.44;5043405;28;20029;-67
2023/01/03 10:27:53;;;;;;;36.43;16.23;;;;;;;-142.75;100.00;78405.34;5027260;28;20112;-68
2023/01/03 10:30:32;;;;;;;37.97;15.03;;;;;;;-142.75;100.00;78409.28;5045208;28;20040;-68
2023/01/03 10:33:37;;;;;;;34.23;14.83;;;;;;;-142.75;100.00;78405.34;5044006;28;20032;-68
2023/01/03 10:36:02;;;;;;;28.40;14.60;;;;;;;-142.75;100.00;78407.31;5048810;28;20046;-69
2023/01/03 10:38:28;;;;;;;35.80;14.80;;;;;;;-142.75;100.00;78405.34;5048494;28;20029;-69
2023/01/03 10:40:59;;;;;;;37.67;15.30;;;;;;;-142.75;100.00;78399.44;5049031;28;20020;-69
2023/01/03 10:43:45;;;;;;;29.07;14.20;;;;;;;-142.75;100.00;78401.38;5052136;28;20037;-69
2023/01/03 10:46:25;;;;;;;42.67;20.70;;;;;;;-142.75;100.00;78409.28;5045996;28;20063;-66
2023/01/03 10:48:52;;;;;;;31.53;15.07;;;;;;;-142.75;100.00;78413.22;5046419;28;20784;-65
2023/01/03 10:51:39;;;;;;;35.23;16.30;;;;;;;-142.75;100.00;78405.34;5048309;28;20029;-66
2023/01/03 10:54:17;;;;;;;28.70;13.43;;;;;;;-142.75;100.00;78403.38;5048356;28;20028;-66
2023/01/03 10:56:44;;;;;;;30.23;13.77;;;;;;;-142.75;100.00;78381.69;5047996;28;20033;-66
2023/01/03 10:59:29;;;;;;;33.23;14.63;;;;;;;-142.75;100.00;78385.63;5049904;28;20029;-66
2023/01/03 11:01:59;;;;;;;27.83;13.27;;;;;;;-142.75;100.00;78377.75;5046461;28;20032;-67
2023/01/03 11:04:26;;;;;;;26.43;13.53;;;;;;;-142.75;100.00;78375.78;5044145;28;20028;-67
2023/01/03 11:07:12;;;;;;;26.50;12.93;;;;;;;-142.75;100.00;78365.94;5041543;28;20037;-66
2023/01/03 11:09:51;;;;;;;28.45;13.88;;;;;;;-142.75;100.00;78350.19;5043618;28;20036;-67
2023/01/03 11:12:20;;;;;;;23.57;12.50;;;;;;;-142.75;100.00;78352.16;5046640;28;20081;-69
2023/01/03 11:14:56;;;;;;;26.27;13.73;;;;;;;-142.75;100.00;78369.88;5045998;28;20024;-68
2023/01/03 11:17:24;;;;;;;24.95;12.07;;;;;;;-142.75;100.00;78362.00;5042765;28;20635;-69
2023/01/03 11:19:51;;;;;;;25.58;11.73;;;;;;;-142.75;100.00;78373.81;5040016;28;20078;-69
2023/01/03 11:22:39;;;;;;;23.97;11.40;;;;;;;-142.75;100.00;78369.88;5021529;28;20828;-69
2023/01/03 11:25:07;;;;;;;23.52;11.15;;;;;;;-142.75;100.00;78358.06;5039208;28;20029;-69
2023/01/03 11:27:32;;;;;;;21.70;9.90;;;;;;;-142.75;100.00;78356.09;5037080;28;20033;-69
2023/01/03 11:29:58;;;;;;;26.93;11.03;;;;;;;-142.75;100.00;78354.13;5039116;28;20490;-69
2023/01/03 11:32:26;;;;;;;21.45;10.60;;;;;;;-142.75;100.00;78350.19;5039088;28;20362;-68
2023/01/03 11:35:12;;;;;;;15.50;9.60;;;;;;;-142.75;100.00;78358.06;5039996;28;20024;-69
2023/01/03 11:37:50;;;;;;;17.35;9.25;;;;;;;-142.75;100.00;78358.06;5039930;28;20864;-69
2023/01/03 11:40:25;;;;;;;19.77;8.50;;;;;;;-142.75;100.00;78336.41;5043370;28;20056;-69
2023/01/03 11:43:15;;;;;;;18.37;9.50;;;;;;;-142.75;100.00;78324.59;5044656;28;20117;-69
2023/01/03 11:45:52;;;;;;;18.70;7.70;;;;;;;-142.75;100.00;78322.63;5043877;28;20025;-69
2023/01/03 11:48:29;;;;;;;13.52;7.95;;;;;;;-142.75;100.00;78332.47;5043129;28;20033;-68
2023/01/03 11:51:13;;;;;;;15.45;7.78;;;;;;;-142.75;100.00;78314.75;5044611;28;20382;-69
2023/01/03 11:54:04;;;;;;;12.32;6.95;;;;;;;-142.75;100.00;78310.81;5044074;28;20119;-69
2023/01/03 11:56:49;;;;;;;15.57;6.60;;;;;;;-142.75;100.00;78318.69;5043881;28;20025;-68
2023/01/03 11:59:27;;;;;;;13.68;6.63;;;;;;;-142.75;100.00;78314.75;5062879;28;20102;-69
2023/01/03 12:02:26;;;;;;;17.73;6.82;;;;;;;-142.75;100.00;78291.09;5063853;28;20028;-68
2023/01/03 12:05:01;;;;;;;16.35;6.05;;;;;;;-142.75;100.00;78289.13;5035979;28;20364;-69
2023/01/03 12:07:37;;;;;;;14.55;7.35;;;;;;;-142.75;100.00;78302.94;5047756;28;20033;-69
2023/01/03 12:10:13;;;;;;;11.43;6.10;;;;;;;-142.75;100.00;78297.00;5050666;28;20543;-69